Coelho da Rocha, Brazil
Current Conditions -  °F | °C
As of 7:00 AM on Saturday 20 Dec 2014 (Local Time) from SBAF Reporting Station
Broken Clouds Broken Clouds  
Wind Chill: 75°   Ceiling: 10000
Heat Index: 75°   Visibility: 5mi
Dew Point: 72°   Wind: 3mph
Humidity: 89%   Direction: 270°W
Pressure: 29.8"   Gusts: NA
Location:  22.78°S, 43.38°W
Report Text: SBAF 200900Z 27003KT 8000 FEW025 BKN100 24/22 Q1009
Loading
Personal Weather Stations






























Interactive Weather Map New forecast layout! Learn more

10-Day Weather Forecast

Advertisements
Track Severe Weather on mobile